sensor_id;sensor_type;location;lat;lon;timestamp;P1;durP1;ratioP1;P2;durP2;ratioP2
58196;SDS011;43999;51.660;5.616;2024-01-06T00:02:22;322.48;;;152.35;;
58196;SDS011;43999;51.660;5.616;2024-01-06T00:05:14;317.75;;;149.75;;
58196;SDS011;43999;51.660;5.616;2024-01-06T00:08:19;333.30;;;151.40;;
58196;SDS011;43999;51.660;5.616;2024-01-06T00:11:12;305.30;;;148.93;;
58196;SDS011;43999;51.660;5.616;2024-01-06T00:17:11;327.02;;;151.25;;
58196;SDS011;43999;51.660;5.616;2024-01-06T00:20:19;328.08;;;153.15;;
58196;SDS011;43999;51.660;5.616;2024-01-06T00:23:14;316.23;;;149.82;;
58196;SDS011;43999;51.660;5.616;2024-01-06T00:26:15;326.90;;;149.50;;
58196;SDS011;43999;51.660;5.616;2024-01-06T00:29:18;324.02;;;149.77;;
58196;SDS011;43999;51.660;5.616;2024-01-06T00:32:09;324.30;;;150.77;;
58196;SDS011;43999;51.660;5.616;2024-01-06T00:34:59;333.10;;;152.68;;
58196;SDS011;43999;51.660;5.616;2024-01-06T00:37:51;321.40;;;149.48;;
58196;SDS011;43999;51.660;5.616;2024-01-06T00:40:51;334.10;;;151.77;;
58196;SDS011;43999;51.660;5.616;2024-01-06T00:43:48;317.80;;;147.57;;
58196;SDS011;43999;51.660;5.616;2024-01-06T00:47:12;336.60;;;152.50;;
58196;SDS011;43999;51.660;5.616;2024-01-06T00:50:23;334.20;;;152.25;;
58196;SDS011;43999;51.660;5.616;2024-01-06T00:53:17;344.00;;;154.25;;
58196;SDS011;43999;51.660;5.616;2024-01-06T00:56:20;344.08;;;150.40;;
58196;SDS011;43999;51.660;5.616;2024-01-06T00:59:09;349.65;;;153.45;;
58196;SDS011;43999;51.660;5.616;2024-01-06T01:02:06;352.73;;;155.38;;
58196;SDS011;43999;51.660;5.616;2024-01-06T01:04:55;341.83;;;148.35;;
58196;SDS011;43999;51.660;5.616;2024-01-06T01:07:45;348.27;;;153.43;;
58196;SDS011;43999;51.660;5.616;2024-01-06T01:10:49;370.23;;;153.57;;
58196;SDS011;43999;51.660;5.616;2024-01-06T01:13:42;350.30;;;151.73;;
58196;SDS011;43999;51.660;5.616;2024-01-06T01:16:46;366.48;;;155.50;;
58196;SDS011;43999;51.660;5.616;2024-01-06T01:19:40;351.27;;;153.02;;
58196;SDS011;43999;51.660;5.616;2024-01-06T01:22:30;352.27;;;153.23;;
58196;SDS011;43999;51.660;5.616;2024-01-06T01:25:23;357.38;;;155.25;;
58196;SDS011;43999;51.660;5.616;2024-01-06T01:28:22;357.42;;;154.68;;
58196;SDS011;43999;51.660;5.616;2024-01-06T01:31:20;352.25;;;154.40;;
58196;SDS011;43999;51.660;5.616;2024-01-06T01:34:22;336.75;;;151.95;;
58196;SDS011;43999;51.660;5.616;2024-01-06T01:37:21;354.80;;;154.40;;
58196;SDS011;43999;51.660;5.616;2024-01-06T01:40:12;354.63;;;154.60;;
58196;SDS011;43999;51.660;5.616;2024-01-06T01:43:16;349.65;;;154.45;;
58196;SDS011;43999;51.660;5.616;2024-01-06T01:46:11;334.42;;;151.40;;
58196;SDS011;43999;51.660;5.616;2024-01-06T01:49:20;343.00;;;154.73;;
58196;SDS011;43999;51.660;5.616;2024-01-06T01:52:13;347.27;;;155.00;;
58196;SDS011;43999;51.660;5.616;2024-01-06T01:55:07;352.30;;;154.27;;
58196;SDS011;43999;51.660;5.616;2024-01-06T01:58:08;346.08;;;150.93;;
58196;SDS011;43999;51.660;5.616;2024-01-06T02:00:59;349.17;;;152.27;;
58196;SDS011;43999;51.660;5.616;2024-01-06T02:03:50;356.70;;;150.15;;
58196;SDS011;43999;51.660;5.616;2024-01-06T02:06:41;368.30;;;153.70;;
58196;SDS011;43999;51.660;5.616;2024-01-06T02:09:30;371.30;;;152.82;;
58196;SDS011;43999;51.660;5.616;2024-01-06T02:12:25;365.27;;;151.65;;
58196;SDS011;43999;51.660;5.616;2024-01-06T02:15:21;345.65;;;146.70;;
58196;SDS011;43999;51.660;5.616;2024-01-06T02:18:14;361.45;;;149.05;;
58196;SDS011;43999;51.660;5.616;2024-01-06T02:21:06;386.20;;;155.65;;
58196;SDS011;43999;51.660;5.616;2024-01-06T02:23:57;366.98;;;151.82;;
58196;SDS011;43999;51.660;5.616;2024-01-06T02:26:55;373.27;;;151.13;;
58196;SDS011;43999;51.660;5.616;2024-01-06T02:29:56;375.90;;;152.38;;
58196;SDS011;43999;51.660;5.616;2024-01-06T02:32:46;385.15;;;154.52;;
58196;SDS011;43999;51.660;5.616;2024-01-06T02:35:41;379.67;;;152.23;;
58196;SDS011;43999;51.660;5.616;2024-01-06T02:38:33;371.15;;;149.85;;
58196;SDS011;43999;51.660;5.616;2024-01-06T02:41:24;347.30;;;148.57;;
58196;SDS011;43999;51.660;5.616;2024-01-06T02:47:01;367.50;;;148.00;;
58196;SDS011;43999;51.660;5.616;2024-01-06T02:50:03;360.88;;;147.55;;
58196;SDS011;43999;51.660;5.616;2024-01-06T02:52:55;355.42;;;145.32;;
58196;SDS011;43999;51.660;5.616;2024-01-06T02:55:57;368.95;;;149.35;;
58196;SDS011;43999;51.660;5.616;2024-01-06T02:59:00;367.70;;;150.60;;
58196;SDS011;43999;51.660;5.616;2024-01-06T03:01:53;345.80;;;145.05;;
58196;SDS011;43999;51.660;5.616;2024-01-06T03:04:41;361.92;;;149.38;;
58196;SDS011;43999;51.660;5.616;2024-01-06T03:07:33;360.75;;;148.98;;
58196;SDS011;43999;51.660;5.616;2024-01-06T03:10:24;353.65;;;147.80;;
58196;SDS011;43999;51.660;5.616;2024-01-06T03:13:12;347.05;;;147.25;;
58196;SDS011;43999;51.660;5.616;2024-01-06T03:16:03;357.35;;;149.48;;
58196;SDS011;43999;51.660;5.616;2024-01-06T03:19:02;370.33;;;150.18;;
58196;SDS011;43999;51.660;5.616;2024-01-06T03:22:06;367.77;;;150.18;;
58196;SDS011;43999;51.660;5.616;2024-01-06T03:24:56;370.10;;;151.43;;
58196;SDS011;43999;51.660;5.616;2024-01-06T03:27:47;364.98;;;149.90;;
58196;SDS011;43999;51.660;5.616;2024-01-06T03:30:41;360.95;;;150.52;;
58196;SDS011;43999;51.660;5.616;2024-01-06T03:33:38;363.33;;;149.70;;
58196;SDS011;43999;51.660;5.616;2024-01-06T03:36:27;384.02;;;152.00;;
58196;SDS011;43999;51.660;5.616;2024-01-06T03:39:26;389.67;;;156.18;;
58196;SDS011;43999;51.660;5.616;2024-01-06T03:42:20;388.90;;;154.57;;
58196;SDS011;43999;51.660;5.616;2024-01-06T03:45:22;379.80;;;151.95;;
58196;SDS011;43999;51.660;5.616;2024-01-06T03:48:11;383.23;;;152.07;;
58196;SDS011;43999;51.660;5.616;2024-01-06T03:51:12;389.65;;;152.80;;
58196;SDS011;43999;51.660;5.616;2024-01-06T03:54:17;379.17;;;149.30;;
58196;SDS011;43999;51.660;5.616;2024-01-06T03:57:30;405.13;;;155.18;;
58196;SDS011;43999;51.660;5.616;2024-01-06T04:00:26;395.55;;;151.82;;
58196;SDS011;43999;51.660;5.616;2024-01-06T04:03:17;396.38;;;154.05;;
58196;SDS011;43999;51.660;5.616;2024-01-06T04:06:13;410.70;;;157.85;;
58196;SDS011;43999;51.660;5.616;2024-01-06T04:09:02;401.52;;;157.05;;
58196;SDS011;43999;51.660;5.616;2024-01-06T04:11:50;395.45;;;155.07;;
58196;SDS011;43999;51.660;5.616;2024-01-06T04:14:45;399.25;;;154.88;;
58196;SDS011;43999;51.660;5.616;2024-01-06T04:17:40;405.10;;;157.18;;
58196;SDS011;43999;51.660;5.616;2024-01-06T04:20:31;415.58;;;156.25;;
58196;SDS011;43999;51.660;5.616;2024-01-06T04:23:26;418.10;;;157.85;;
58196;SDS011;43999;51.660;5.616;2024-01-06T04:26:16;412.30;;;154.38;;
58196;SDS011;43999;51.660;5.616;2024-01-06T04:29:10;424.17;;;157.88;;
58196;SDS011;43999;51.660;5.616;2024-01-06T04:32:06;427.02;;;159.23;;
58196;SDS011;43999;51.660;5.616;2024-01-06T04:35:25;421.23;;;157.73;;
58196;SDS011;43999;51.660;5.616;2024-01-06T04:38:29;438.67;;;162.65;;
58196;SDS011;43999;51.660;5.616;2024-01-06T04:41:28;433.00;;;159.40;;
58196;SDS011;43999;51.660;5.616;2024-01-06T04:44:32;444.60;;;157.63;;
58196;SDS011;43999;51.660;5.616;2024-01-06T04:47:21;446.23;;;160.38;;
58196;SDS011;43999;51.660;5.616;2024-01-06T04:50:10;462.42;;;161.05;;
58196;SDS011;43999;51.660;5.616;2024-01-06T04:53:20;446.33;;;160.65;;
58196;SDS011;43999;51.660;5.616;2024-01-06T04:56:25;446.60;;;163.25;;
58196;SDS011;43999;51.660;5.616;2024-01-06T04:59:14;433.35;;;160.30;;
58196;SDS011;43999;51.660;5.616;2024-01-06T05:02:09;421.92;;;158.27;;
58196;SDS011;43999;51.660;5.616;2024-01-06T05:04:58;439.02;;;161.02;;
58196;SDS011;43999;51.660;5.616;2024-01-06T05:07:50;444.13;;;162.60;;
58196;SDS011;43999;51.660;5.616;2024-01-06T05:10:40;435.75;;;160.77;;
58196;SDS011;43999;51.660;5.616;2024-01-06T05:13:28;449.85;;;164.15;;
58196;SDS011;43999;51.660;5.616;2024-01-06T05:16:22;445.80;;;164.23;;
58196;SDS011;43999;51.660;5.616;2024-01-06T05:19:16;452.65;;;162.43;;
58196;SDS011;43999;51.660;5.616;2024-01-06T05:22:09;446.60;;;162.20;;
58196;SDS011;43999;51.660;5.616;2024-01-06T05:24:58;447.83;;;162.82;;
58196;SDS011;43999;51.660;5.616;2024-01-06T05:27:48;452.10;;;164.00;;
58196;SDS011;43999;51.660;5.616;2024-01-06T05:30:37;435.98;;;160.60;;
58196;SDS011;43999;51.660;5.616;2024-01-06T05:33:26;442.65;;;162.35;;
58196;SDS011;43999;51.660;5.616;2024-01-06T05:36:18;449.70;;;163.90;;
58196;SDS011;43999;51.660;5.616;2024-01-06T05:39:07;429.33;;;161.73;;
58196;SDS011;43999;51.660;5.616;2024-01-06T05:41:56;442.42;;;160.90;;
58196;SDS011;43999;51.660;5.616;2024-01-06T05:45:14;439.15;;;160.20;;
58196;SDS011;43999;51.660;5.616;2024-01-06T05:48:10;443.63;;;160.02;;
58196;SDS011;43999;51.660;5.616;2024-01-06T05:51:06;421.00;;;157.48;;
58196;SDS011;43999;51.660;5.616;2024-01-06T05:53:55;441.08;;;155.82;;
58196;SDS011;43999;51.660;5.616;2024-01-06T05:57:10;414.63;;;154.43;;
58196;SDS011;43999;51.660;5.616;2024-01-06T06:00:22;404.42;;;151.55;;
58196;SDS011;43999;51.660;5.616;2024-01-06T06:03:14;426.60;;;155.55;;
58196;SDS011;43999;51.660;5.616;2024-01-06T06:06:05;422.40;;;153.25;;
58196;SDS011;43999;51.660;5.616;2024-01-06T06:08:55;420.27;;;155.75;;
58196;SDS011;43999;51.660;5.616;2024-01-06T06:11:53;398.83;;;153.48;;
58196;SDS011;43999;51.660;5.616;2024-01-06T06:14:55;407.67;;;155.13;;
58196;SDS011;43999;51.660;5.616;2024-01-06T06:17:58;416.67;;;156.02;;
58196;SDS011;43999;51.660;5.616;2024-01-06T06:20:55;382.02;;;153.45;;
58196;SDS011;43999;51.660;5.616;2024-01-06T06:23:47;377.58;;;153.07;;
58196;SDS011;43999;51.660;5.616;2024-01-06T06:26:45;379.52;;;151.02;;
58196;SDS011;43999;51.660;5.616;2024-01-06T06:29:44;389.77;;;154.20;;
58196;SDS011;43999;51.660;5.616;2024-01-06T06:32:35;390.85;;;152.75;;
58196;SDS011;43999;51.660;5.616;2024-01-06T06:35:26;393.45;;;152.55;;
58196;SDS011;43999;51.660;5.616;2024-01-06T06:38:47;403.95;;;154.77;;
58196;SDS011;43999;51.660;5.616;2024-01-06T06:42:03;406.27;;;154.38;;
58196;SDS011;43999;51.660;5.616;2024-01-06T06:45:03;431.08;;;154.25;;
58196;SDS011;43999;51.660;5.616;2024-01-06T06:47:53;398.05;;;155.15;;
58196;SDS011;43999;51.660;5.616;2024-01-06T06:50:46;397.88;;;154.88;;
58196;SDS011;43999;51.660;5.616;2024-01-06T06:53:54;396.10;;;154.57;;
58196;SDS011;43999;51.660;5.616;2024-01-06T06:56:55;397.90;;;155.00;;
58196;SDS011;43999;51.660;5.616;2024-01-06T06:59:49;394.13;;;153.88;;
58196;SDS011;43999;51.660;5.616;2024-01-06T07:02:52;413.17;;;157.30;;
58196;SDS011;43999;51.660;5.616;2024-01-06T07:05:41;406.83;;;153.48;;
58196;SDS011;43999;51.660;5.616;2024-01-06T07:08:40;415.45;;;155.82;;
58196;SDS011;43999;51.660;5.616;2024-01-06T07:11:29;402.20;;;152.27;;
58196;SDS011;43999;51.660;5.616;2024-01-06T07:14:29;412.92;;;153.82;;
58196;SDS011;43999;51.660;5.616;2024-01-06T07:17:20;424.67;;;158.35;;
58196;SDS011;43999;51.660;5.616;2024-01-06T07:20:20;433.02;;;159.63;;
58196;SDS011;43999;51.660;5.616;2024-01-06T07:23:25;433.98;;;157.75;;
58196;SDS011;43999;51.660;5.616;2024-01-06T07:26:16;433.00;;;160.75;;
58196;SDS011;43999;51.660;5.616;2024-01-06T07:32:09;443.73;;;160.32;;
58196;SDS011;43999;51.660;5.616;2024-01-06T07:35:00;434.95;;;159.75;;
58196;SDS011;43999;51.660;5.616;2024-01-06T07:37:59;435.27;;;162.23;;
58196;SDS011;43999;51.660;5.616;2024-01-06T07:40:58;438.77;;;161.88;;
58196;SDS011;43999;51.660;5.616;2024-01-06T07:44:39;445.85;;;160.00;;
58196;SDS011;43999;51.660;5.616;2024-01-06T07:47:31;445.95;;;161.27;;
58196;SDS011;43999;51.660;5.616;2024-01-06T07:50:30;452.15;;;164.38;;
58196;SDS011;43999;51.660;5.616;2024-01-06T07:53:18;454.02;;;161.95;;
58196;SDS011;43999;51.660;5.616;2024-01-06T07:56:07;462.83;;;165.63;;
58196;SDS011;43999;51.660;5.616;2024-01-06T07:59:11;468.52;;;165.85;;
58196;SDS011;43999;51.660;5.616;2024-01-06T08:02:13;455.67;;;159.18;;
58196;SDS011;43999;51.660;5.616;2024-01-06T08:05:04;457.55;;;163.93;;
58196;SDS011;43999;51.660;5.616;2024-01-06T08:08:04;464.92;;;164.02;;
58196;SDS011;43999;51.660;5.616;2024-01-06T08:10:54;470.27;;;166.02;;
58196;SDS011;43999;51.660;5.616;2024-01-06T08:14:13;466.40;;;162.40;;
58196;SDS011;43999;51.660;5.616;2024-01-06T08:17:30;482.88;;;165.45;;
58196;SDS011;43999;51.660;5.616;2024-01-06T08:20:42;481.00;;;166.10;;
58196;SDS011;43999;51.660;5.616;2024-01-06T08:23:41;481.63;;;169.18;;
58196;SDS011;43999;51.660;5.616;2024-01-06T08:27:06;480.42;;;170.35;;
58196;SDS011;43999;51.660;5.616;2024-01-06T08:30:33;479.58;;;168.55;;
58196;SDS011;43999;51.660;5.616;2024-01-06T08:33:51;472.42;;;163.20;;
58196;SDS011;43999;51.660;5.616;2024-01-06T08:36:50;470.67;;;166.25;;
58196;SDS011;43999;51.660;5.616;2024-01-06T08:40:01;484.75;;;170.70;;
58196;SDS011;43999;51.660;5.616;2024-01-06T08:43:39;482.38;;;165.38;;
58196;SDS011;43999;51.660;5.616;2024-01-06T08:47:12;479.95;;;165.30;;
58196;SDS011;43999;51.660;5.616;2024-01-06T08:51:04;491.27;;;166.45;;
58196;SDS011;43999;51.660;5.616;2024-01-06T08:54:19;505.63;;;172.10;;
58196;SDS011;43999;51.660;5.616;2024-01-06T08:57:26;493.23;;;168.55;;
58196;SDS011;43999;51.660;5.616;2024-01-06T09:00:50;496.73;;;167.73;;
58196;SDS011;43999;51.660;5.616;2024-01-06T09:03:54;495.75;;;165.57;;
58196;SDS011;43999;51.660;5.616;2024-01-06T09:07:10;498.92;;;167.55;;
58196;SDS011;43999;51.660;5.616;2024-01-06T09:10:45;420.60;;;141.30;;
58196;SDS011;43999;51.660;5.616;2024-01-06T09:13:53;511.40;;;170.15;;
58196;SDS011;43999;51.660;5.616;2024-01-06T09:16:51;493.33;;;169.88;;
58196;SDS011;43999;51.660;5.616;2024-01-06T09:20:02;485.60;;;169.18;;
58196;SDS011;43999;51.660;5.616;2024-01-06T09:23:06;484.90;;;170.93;;
58196;SDS011;43999;51.660;5.616;2024-01-06T09:25:58;444.02;;;164.13;;
58196;SDS011;43999;51.660;5.616;2024-01-06T09:29:09;457.73;;;165.20;;
58196;SDS011;43999;51.660;5.616;2024-01-06T09:32:25;452.02;;;159.27;;
58196;SDS011;43999;51.660;5.616;2024-01-06T09:36:05;440.48;;;158.30;;
58196;SDS011;43999;51.660;5.616;2024-01-06T09:38:57;452.05;;;162.13;;
58196;SDS011;43999;51.660;5.616;2024-01-06T09:42:01;447.75;;;158.80;;
58196;SDS011;43999;51.660;5.616;2024-01-06T09:45:01;436.83;;;160.27;;
58196;SDS011;43999;51.660;5.616;2024-01-06T09:51:42;468.15;;;165.50;;
58196;SDS011;43999;51.660;5.616;2024-01-06T09:54:53;464.23;;;164.02;;
58196;SDS011;43999;51.660;5.616;2024-01-06T09:57:44;467.05;;;161.65;;
58196;SDS011;43999;51.660;5.616;2024-01-06T10:00:48;466.30;;;164.77;;
58196;SDS011;43999;51.660;5.616;2024-01-06T10:03:39;457.92;;;161.38;;
58196;SDS011;43999;51.660;5.616;2024-01-06T10:06:46;476.10;;;166.13;;
58196;SDS011;43999;51.660;5.616;2024-01-06T10:09:57;469.40;;;165.60;;
58196;SDS011;43999;51.660;5.616;2024-01-06T10:13:05;484.10;;;168.68;;
58196;SDS011;43999;51.660;5.616;2024-01-06T10:16:46;480.27;;;165.35;;
58196;SDS011;43999;51.660;5.616;2024-01-06T10:20:02;485.25;;;171.27;;
58196;SDS011;43999;51.660;5.616;2024-01-06T10:23:14;479.35;;;166.30;;
58196;SDS011;43999;51.660;5.616;2024-01-06T10:26:25;478.73;;;162.82;;
58196;SDS011;43999;51.660;5.616;2024-01-06T10:29:47;483.10;;;166.07;;
58196;SDS011;43999;51.660;5.616;2024-01-06T10:32:49;488.15;;;167.05;;
58196;SDS011;43999;51.660;5.616;2024-01-06T10:36:32;493.08;;;164.90;;
58196;SDS011;43999;51.660;5.616;2024-01-06T10:39:28;487.55;;;166.43;;
58196;SDS011;43999;51.660;5.616;2024-01-06T10:42:42;493.00;;;165.38;;
58196;SDS011;43999;51.660;5.616;2024-01-06T10:46:12;499.13;;;170.02;;
58196;SDS011;43999;51.660;5.616;2024-01-06T10:49:58;498.60;;;167.88;;
58196;SDS011;43999;51.660;5.616;2024-01-06T10:53:14;492.65;;;166.55;;
58196;SDS011;43999;51.660;5.616;2024-01-06T10:56:37;499.92;;;164.05;;
58196;SDS011;43999;51.660;5.616;2024-01-06T10:59:59;505.05;;;170.27;;
58196;SDS011;43999;51.660;5.616;2024-01-06T11:03:28;504.67;;;167.85;;
58196;SDS011;43999;51.660;5.616;2024-01-06T11:06:45;495.77;;;168.65;;
58196;SDS011;43999;51.660;5.616;2024-01-06T11:10:24;489.95;;;164.73;;
58196;SDS011;43999;51.660;5.616;2024-01-06T11:13:43;500.25;;;168.70;;
58196;SDS011;43999;51.660;5.616;2024-01-06T11:17:07;503.27;;;169.50;;
58196;SDS011;43999;51.660;5.616;2024-01-06T11:20:07;491.67;;;166.90;;
58196;SDS011;43999;51.660;5.616;2024-01-06T11:23:44;502.88;;;167.43;;
58196;SDS011;43999;51.660;5.616;2024-01-06T11:27:02;505.75;;;168.30;;
58196;SDS011;43999;51.660;5.616;2024-01-06T11:30:02;497.65;;;167.00;;
58196;SDS011;43999;51.660;5.616;2024-01-06T11:33:04;514.72;;;174.00;;
58196;SDS011;43999;51.660;5.616;2024-01-06T11:36:01;501.85;;;168.10;;
58196;SDS011;43999;51.660;5.616;2024-01-06T11:42:33;505.67;;;169.60;;
58196;SDS011;43999;51.660;5.616;2024-01-06T11:46:06;416.83;;;141.82;;
58196;SDS011;43999;51.660;5.616;2024-01-06T11:49:21;498.27;;;167.48;;
58196;SDS011;43999;51.660;5.616;2024-01-06T11:52:15;501.83;;;172.48;;
58196;SDS011;43999;51.660;5.616;2024-01-06T11:55:39;509.15;;;168.45;;
58196;SDS011;43999;51.660;5.616;2024-01-06T11:58:39;507.13;;;169.38;;
58196;SDS011;43999;51.660;5.616;2024-01-06T12:01:47;512.25;;;169.43;;
58196;SDS011;43999;51.660;5.616;2024-01-06T12:04:48;518.58;;;170.20;;
58196;SDS011;43999;51.660;5.616;2024-01-06T12:08:03;534.65;;;174.25;;
58196;SDS011;43999;51.660;5.616;2024-01-06T12:11:17;510.48;;;168.57;;
58196;SDS011;43999;51.660;5.616;2024-01-06T12:14:24;518.08;;;170.07;;
58196;SDS011;43999;51.660;5.616;2024-01-06T12:17:21;526.35;;;172.70;;
58196;SDS011;43999;51.660;5.616;2024-01-06T12:20:44;529.38;;;172.75;;
58196;SDS011;43999;51.660;5.616;2024-01-06T12:24:19;522.13;;;171.25;;
58196;SDS011;43999;51.660;5.616;2024-01-06T12:27:50;545.78;;;175.93;;
58196;SDS011;43999;51.660;5.616;2024-01-06T12:30:41;536.22;;;176.93;;
58196;SDS011;43999;51.660;5.616;2024-01-06T12:34:17;533.92;;;171.18;;
58196;SDS011;43999;51.660;5.616;2024-01-06T12:37:19;537.05;;;173.82;;
58196;SDS011;43999;51.660;5.616;2024-01-06T12:40:13;541.80;;;173.60;;
58196;SDS011;43999;51.660;5.616;2024-01-06T12:43:22;537.33;;;177.75;;
58196;SDS011;43999;51.660;5.616;2024-01-06T12:46:33;544.45;;;174.38;;
58196;SDS011;43999;51.660;5.616;2024-01-06T12:49:49;536.92;;;173.23;;
58196;SDS011;43999;51.660;5.616;2024-01-06T12:52:55;523.83;;;171.10;;
58196;SDS011;43999;51.660;5.616;2024-01-06T12:56:03;529.80;;;171.77;;
58196;SDS011;43999;51.660;5.616;2024-01-06T12:59:27;495.08;;;164.23;;
58196;SDS011;43999;51.660;5.616;2024-01-06T13:02:45;489.75;;;163.93;;
58196;SDS011;43999;51.660;5.616;2024-01-06T13:05:59;486.45;;;164.18;;
58196;SDS011;43999;51.660;5.616;2024-01-06T13:08:57;489.00;;;169.07;;
58196;SDS011;43999;51.660;5.616;2024-01-06T13:12:05;484.05;;;165.05;;
58196;SDS011;43999;51.660;5.616;2024-01-06T13:15:26;490.70;;;165.65;;
58196;SDS011;43999;51.660;5.616;2024-01-06T13:18:43;494.95;;;166.02;;
58196;SDS011;43999;51.660;5.616;2024-01-06T13:21:50;499.92;;;169.88;;
58196;SDS011;43999;51.660;5.616;2024-01-06T13:24:44;502.17;;;166.27;;
58196;SDS011;43999;51.660;5.616;2024-01-06T13:27:48;498.20;;;168.05;;
58196;SDS011;43999;51.660;5.616;2024-01-06T13:31:01;478.48;;;163.68;;
58196;SDS011;43999;51.660;5.616;2024-01-06T13:34:30;501.70;;;165.48;;
58196;SDS011;43999;51.660;5.616;2024-01-06T13:37:51;511.83;;;166.55;;
58196;SDS011;43999;51.660;5.616;2024-01-06T13:40:59;511.33;;;164.18;;
58196;SDS011;43999;51.660;5.616;2024-01-06T13:43:53;495.13;;;168.10;;
58196;SDS011;43999;51.660;5.616;2024-01-06T13:47:01;411.50;;;140.83;;
58196;SDS011;43999;51.660;5.616;2024-01-06T13:50:35;502.88;;;168.40;;
58196;SDS011;43999;51.660;5.616;2024-01-06T13:53:55;500.58;;;167.20;;
58196;SDS011;43999;51.660;5.616;2024-01-06T13:57:09;498.73;;;166.73;;
58196;SDS011;43999;51.660;5.616;2024-01-06T14:00:22;507.65;;;169.65;;
58196;SDS011;43999;51.660;5.616;2024-01-06T14:04:00;517.95;;;169.85;;
58196;SDS011;43999;51.660;5.616;2024-01-06T14:06:50;522.25;;;172.00;;
58196;SDS011;43999;51.660;5.616;2024-01-06T14:09:43;513.83;;;168.38;;
58196;SDS011;43999;51.660;5.616;2024-01-06T14:17:33;528.80;;;166.98;;
58196;SDS011;43999;51.660;5.616;2024-01-06T14:20:49;537.88;;;177.45;;
58196;SDS011;43999;51.660;5.616;2024-01-06T14:24:08;528.03;;;173.32;;
58196;SDS011;43999;51.660;5.616;2024-01-06T14:27:23;521.38;;;172.48;;
58196;SDS011;43999;51.660;5.616;2024-01-06T14:30:31;516.55;;;175.85;;
58196;SDS011;43999;51.660;5.616;2024-01-06T14:33:34;508.27;;;173.23;;
58196;SDS011;43999;51.660;5.616;2024-01-06T14:36:49;508.80;;;173.52;;
58196;SDS011;43999;51.660;5.616;2024-01-06T14:43:15;506.17;;;168.63;;
58196;SDS011;43999;51.660;5.616;2024-01-06T14:46:34;494.63;;;168.90;;
58196;SDS011;43999;51.660;5.616;2024-01-06T14:50:22;499.20;;;169.45;;
58196;SDS011;43999;51.660;5.616;2024-01-06T14:53:57;500.90;;;171.40;;
58196;SDS011;43999;51.660;5.616;2024-01-06T14:57:58;492.30;;;168.50;;
58196;SDS011;43999;51.660;5.616;2024-01-06T15:02:05;494.45;;;169.63;;
58196;SDS011;43999;51.660;5.616;2024-01-06T15:05:02;495.23;;;169.63;;
58196;SDS011;43999;51.660;5.616;2024-01-06T15:08:01;496.52;;;173.77;;
58196;SDS011;43999;51.660;5.616;2024-01-06T15:11:03;488.70;;;166.75;;
58196;SDS011;43999;51.660;5.616;2024-01-06T15:13:57;498.75;;;170.38;;
58196;SDS011;43999;51.660;5.616;2024-01-06T15:16:51;497.83;;;170.48;;
58196;SDS011;43999;51.660;5.616;2024-01-06T15:19:52;504.50;;;173.00;;
58196;SDS011;43999;51.660;5.616;2024-01-06T15:22:49;504.55;;;172.52;;
58196;SDS011;43999;51.660;5.616;2024-01-06T15:26:20;505.52;;;171.75;;
58196;SDS011;43999;51.660;5.616;2024-01-06T15:29:47;515.10;;;173.35;;
58196;SDS011;43999;51.660;5.616;2024-01-06T15:33:19;508.30;;;175.80;;
58196;SDS011;43999;51.660;5.616;2024-01-06T15:36:44;506.65;;;171.30;;
58196;SDS011;43999;51.660;5.616;2024-01-06T15:40:29;511.45;;;171.30;;
58196;SDS011;43999;51.660;5.616;2024-01-06T15:44:17;511.70;;;172.30;;
58196;SDS011;43999;51.660;5.616;2024-01-06T15:47:54;507.10;;;168.52;;
58196;SDS011;43999;51.660;5.616;2024-01-06T15:52:05;520.50;;;174.18;;
58196;SDS011;43999;51.660;5.616;2024-01-06T15:55:43;489.48;;;172.45;;
58196;SDS011;43999;51.660;5.616;2024-01-06T15:59:11;490.02;;;171.20;;
58196;SDS011;43999;51.660;5.616;2024-01-06T16:02:32;499.40;;;171.70;;
58196;SDS011;43999;51.660;5.616;2024-01-06T16:06:09;500.40;;;168.63;;
58196;SDS011;43999;51.660;5.616;2024-01-06T16:09:20;496.58;;;166.65;;
58196;SDS011;43999;51.660;5.616;2024-01-06T16:12:38;495.88;;;169.25;;
58196;SDS011;43999;51.660;5.616;2024-01-06T16:18:26;507.95;;;168.52;;
58196;SDS011;43999;51.660;5.616;2024-01-06T16:21:34;513.45;;;170.20;;
58196;SDS011;43999;51.660;5.616;2024-01-06T16:24:45;513.92;;;170.68;;
58196;SDS011;43999;51.660;5.616;2024-01-06T16:27:36;506.15;;;172.68;;
58196;SDS011;43999;51.660;5.616;2024-01-06T16:30:35;466.45;;;164.70;;
58196;SDS011;43999;51.660;5.616;2024-01-06T16:33:34;470.97;;;166.87;;
58196;SDS011;43999;51.660;5.616;2024-01-06T16:36:32;477.65;;;166.15;;
58196;SDS011;43999;51.660;5.616;2024-01-06T16:39:29;477.13;;;166.20;;
58196;SDS011;43999;51.660;5.616;2024-01-06T16:42:33;472.58;;;163.50;;
58196;SDS011;43999;51.660;5.616;2024-01-06T16:45:50;485.98;;;166.95;;
58196;SDS011;43999;51.660;5.616;2024-01-06T16:48:46;486.48;;;168.98;;
58196;SDS011;43999;51.660;5.616;2024-01-06T16:51:36;479.38;;;162.38;;
58196;SDS011;43999;51.660;5.616;2024-01-06T16:54:27;482.70;;;166.48;;
58196;SDS011;43999;51.660;5.616;2024-01-06T16:57:17;487.38;;;166.52;;
58196;SDS011;43999;51.660;5.616;2024-01-06T17:00:07;494.63;;;166.40;;
58196;SDS011;43999;51.660;5.616;2024-01-06T17:02:59;491.85;;;167.18;;
58196;SDS011;43999;51.660;5.616;2024-01-06T17:06:22;498.73;;;169.48;;
58196;SDS011;43999;51.660;5.616;2024-01-06T17:09:44;503.35;;;171.77;;
58196;SDS011;43999;51.660;5.616;2024-01-06T17:12:36;507.20;;;166.23;;
58196;SDS011;43999;51.660;5.616;2024-01-06T17:15:30;516.47;;;167.82;;
58196;SDS011;43999;51.660;5.616;2024-01-06T17:18:43;492.45;;;168.40;;
58196;SDS011;43999;51.660;5.616;2024-01-06T17:21:46;503.63;;;172.15;;
58196;SDS011;43999;51.660;5.616;2024-01-06T17:24:40;494.98;;;170.05;;
58196;SDS011;43999;51.660;5.616;2024-01-06T17:27:47;500.52;;;169.43;;
58196;SDS011;43999;51.660;5.616;2024-01-06T17:30:59;506.55;;;171.85;;
58196;SDS011;43999;51.660;5.616;2024-01-06T17:34:12;511.98;;;172.23;;
58196;SDS011;43999;51.660;5.616;2024-01-06T17:37:28;507.00;;;170.63;;
58196;SDS011;43999;51.660;5.616;2024-01-06T17:40:50;511.13;;;171.80;;
58196;SDS011;43999;51.660;5.616;2024-01-06T17:47:28;515.72;;;171.90;;
58196;SDS011;43999;51.660;5.616;2024-01-06T17:50:47;508.80;;;172.00;;
58196;SDS011;43999;51.660;5.616;2024-01-06T17:53:50;508.70;;;173.13;;
58196;SDS011;43999;51.660;5.616;2024-01-06T17:57:13;522.33;;;175.57;;
58196;SDS011;43999;51.660;5.616;2024-01-06T18:00:45;523.30;;;173.75;;
58196;SDS011;43999;51.660;5.616;2024-01-06T18:04:07;520.92;;;174.43;;